Whiting, Wisconsin
Current Conditions -  °F | °C
As of 3:35 PM on Wednesday 17 Dec 2014 (Local Time) from KSTE Reporting Station
Scattered Clouds Scattered Clouds  
Wind Chill:   Ceiling: Unl
Heat Index: 19°   Visibility: 10mi
Dew Point: 10°   Wind: 9mph
Humidity: 68%   Direction: 290°WNW
Pressure: 30.22"   Gusts: NA
Location:  44.5531°N, 89.5186°W
Report Text: KSTE 172135Z AUTO 29008KT 10SM SCT030 M07/M12 A3022 RMK AO2 T10711121
Loading
Personal Weather Stations






























Interactive Weather Map New forecast layout! Learn more

10-Day Weather Forecast

Advertisements
Track Severe Weather on mobile